Time;durP1;ratioP1;P1;durP2;ratioP2;P2;SDS_P1;SDS_P2;PMS_P1;PMS_P2;Temp;Humidity;BMP_temperature;BMP_pressure;BME280_temperature;BME280_humidity;BME280_pressure;Samples;Min_cycle;Max_cycle;Signal;HPM_P1;HPM_P2
2024/02/27 00:00:26;;;;;;;2.30;1.40;;;8.50;95.90;;;;;;5036265;28;21190;-81
2024/02/27 00:02:52;;;;;;;1.83;1.60;;;8.50;96.40;;;;;;5031168;28;20676;-81
2024/02/27 00:05:21;;;;;;;2.00;1.70;;;8.40;96.00;;;;;;5051348;28;20629;-81
2024/02/27 00:07:47;;;;;;;2.73;1.60;;;8.40;96.30;;;;;;5026727;28;20673;-81
2024/02/27 00:10:15;;;;;;;1.70;1.60;;;8.40;96.20;;;;;;5024863;28;20632;-81
2024/02/27 00:12:42;;;;;;;1.30;1.20;;;8.40;96.30;;;;;;5024479;28;20682;-81
2024/02/27 00:15:09;;;;;;;1.73;1.40;;;8.30;96.40;;;;;;5021033;28;20735;-80
2024/02/27 00:17:36;;;;;;;1.60;1.50;;;8.30;96.50;;;;;;5026243;28;20706;-81
2024/02/27 00:20:04;;;;;;;1.67;1.57;;;8.30;96.50;;;;;;5017888;28;20628;-81
2024/02/27 00:22:34;;;;;;;1.50;1.40;;;8.30;96.50;;;;;;5008390;28;20872;-80
2024/02/27 00:25:01;;;;;;;1.60;1.50;;;8.30;96.50;;;;;;5028322;28;20631;-81
2024/02/27 00:27:27;;;;;;;1.07;1.07;;;8.30;96.50;;;;;;5031853;28;20641;-82
2024/02/27 00:29:54;;;;;;;1.77;1.37;;;8.30;96.70;;;;;;5067387;28;20641;-81
2024/02/27 00:32:21;;;;;;;1.23;1.23;;;8.30;99.90;;;;;;5038338;28;20677;-81
2024/02/27 00:34:48;;;;;;;1.93;1.53;;;;;;;;;;5011359;28;20645;-81
2024/02/27 00:37:15;;;;;;;1.50;1.40;;;8.10;96.80;;;;;;5011696;28;20632;-80
2024/02/27 00:39:43;;;;;;;1.80;1.70;;;7.80;99.90;;;;;;5018590;28;21070;-81
2024/02/27 00:42:10;;;;;;;1.40;1.30;;;8.10;97.50;;;;;;5024627;28;20622;-80
2024/02/27 00:44:38;;;;;;;1.60;1.43;;;8.00;97.10;;;;;;5010589;28;20620;-81
2024/02/27 00:47:05;;;;;;;1.37;1.10;;;8.00;97.30;;;;;;5018872;28;20681;-81
2024/02/27 00:49:31;;;;;;;1.80;1.30;;;7.90;97.20;;;;;;5026771;28;20635;-81
2024/02/27 00:51:58;;;;;;;3.47;1.73;;;8.00;97.40;;;;;;5037579;28;20772;-81
2024/02/27 00:54:25;;;;;;;1.70;1.60;;;7.80;99.90;;;;;;5020033;28;20626;-81
2024/02/27 00:56:53;;;;;;;1.77;1.63;;;8.50;98.10;;;;;;5053637;27;20685;-81
2024/02/27 00:59:20;;;;;;;2.90;1.93;;;8.00;97.80;;;;;;5025707;27;20628;-81
2024/02/27 01:01:47;;;;;;;1.33;1.23;;;8.00;97.70;;;;;;5039027;28;20623;-81
2024/02/27 01:04:13;;;;;;;1.47;1.37;;;8.10;97.60;;;;;;5031825;28;20640;-81
2024/02/27 01:06:40;;;;;;;1.40;1.30;;;8.10;97.90;;;;;;5025410;28;20638;-82
2024/02/27 01:09:07;;;;;;;1.13;1.13;;;7.80;99.90;;;;;;5021624;28;20622;-82
2024/02/27 01:11:34;;;;;;;1.00;1.00;;;8.00;98.40;;;;;;5027196;28;21073;-82
2024/02/27 01:14:02;;;;;;;2.10;1.33;;;8.00;98.50;;;;;;5048350;28;20725;-82
2024/02/27 01:16:29;;;;;;;1.63;1.43;;;7.90;98.30;;;;;;5029806;28;20707;-81
2024/02/27 01:18:56;;;;;;;1.30;1.07;;;8.90;98.70;;;;;;5024833;28;20623;-81
2024/02/27 01:21:22;;;;;;;1.73;1.40;;;8.00;98.40;;;;;;5027008;28;21124;-81
2024/02/27 01:23:49;;;;;;;1.33;1.23;;;8.00;98.20;;;;;;5029603;28;20652;-82
2024/02/27 01:26:16;;;;;;;1.20;1.10;;;8.00;98.30;;;;;;5041159;28;20637;-81
2024/02/27 01:28:43;;;;;;;1.30;1.07;;;8.00;98.30;;;;;;5045395;28;21195;-81
2024/02/27 01:31:11;;;;;;;1.33;1.23;;;7.90;98.40;;;;;;5031587;28;20947;-81
2024/02/27 01:33:38;;;;;;;0.80;0.80;;;8.00;99.90;;;;;;5035749;27;20729;-81
2024/02/27 01:36:06;;;;;;;1.40;1.17;;;7.90;98.70;;;;;;5017009;28;20631;-81
2024/02/27 01:38:33;;;;;;;1.17;1.07;;;8.40;99.90;;;;;;5008191;28;20707;-81
2024/02/27 01:40:59;;;;;;;1.33;1.20;;;7.90;98.80;;;;;;5023364;28;20634;-81
2024/02/27 01:43:27;;;;;;;0.90;0.90;;;7.90;99.90;;;;;;5033637;28;20634;-82
2024/02/27 01:46:04;;;;;;;1.47;1.33;;;7.80;98.80;;;;;;5017190;28;20638;-81
2024/02/27 01:48:33;;;;;;;2.27;1.33;;;7.80;99.10;;;;;;5025579;28;20621;-81
2024/02/27 01:51:00;;;;;;;2.77;1.17;;;;;;;;;;5031982;28;20619;-81
2024/02/27 01:53:28;;;;;;;1.40;1.30;;;;;;;;;;5023434;28;20648;-81
2024/02/27 01:55:55;;;;;;;1.73;1.37;;;7.60;99.90;;;;;;5017709;28;20631;-81
2024/02/27 01:58:22;;;;;;;1.87;1.03;;;7.50;99.90;;;;;;5023006;28;20728;-81
2024/02/27 02:00:49;;;;;;;1.73;1.50;;;;;;;;;;5023926;28;20623;-81
2024/02/27 02:03:21;;;;;;;2.00;1.90;;;7.30;99.90;;;;;;5039316;28;20626;-81
2024/02/27 02:05:50;;;;;;;1.63;1.40;;;7.70;99.90;;;;;;5014757;28;20749;-81
2024/02/27 02:08:19;;;;;;;1.40;1.30;;;7.60;99.90;;;;;;5029181;27;20632;-82
2024/02/27 02:10:46;;;;;;;4.00;2.07;;;7.70;99.90;;;;;;5013833;28;20656;-81
2024/02/27 02:13:14;;;;;;;3.33;1.63;;;7.60;99.90;;;;;;5029784;28;20695;-81
2024/02/27 02:15:43;;;;;;;1.57;1.47;;;7.60;99.90;;;;;;5027954;28;20622;-81
2024/02/27 02:18:09;;;;;;;1.60;1.50;;;7.60;99.90;;;;;;5016775;28;20727;-81
2024/02/27 02:20:39;;;;;;;1.93;1.60;;;7.60;99.90;;;;;;5018570;28;20623;-81
2024/02/27 02:23:06;;;;;;;2.20;1.60;;;7.70;99.90;;;;;;5030756;27;21008;-81
2024/02/27 02:25:35;;;;;;;2.77;2.10;;;7.60;99.90;;;;;;5030591;28;20627;-81
2024/02/27 02:28:02;;;;;;;5.37;2.10;;;7.70;99.90;;;;;;5027182;28;20627;-82
2024/02/27 02:30:29;;;;;;;2.77;1.77;;;7.80;99.90;;;;;;5025173;28;21020;-81
2024/02/27 02:32:56;;;;;;;2.10;1.90;;;;;;;;;;5027057;28;20748;-81
2024/02/27 02:35:23;;;;;;;3.00;1.87;;;7.60;99.90;;;;;;5024287;28;20665;-81
2024/02/27 02:37:52;;;;;;;2.50;2.30;;;7.30;99.90;;;;;;5014679;28;20986;-81
2024/02/27 02:40:21;;;;;;;3.17;2.03;;;7.60;99.90;;;;;;5063739;27;20693;-81
2024/02/27 02:42:48;;;;;;;2.53;2.27;;;7.50;99.90;;;;;;5074615;27;20612;-81
2024/02/27 02:45:16;;;;;;;2.60;2.40;;;7.60;99.90;;;;;;5011376;28;20624;-81
2024/02/27 02:47:43;;;;;;;2.30;2.07;;;7.50;99.90;;;;;;5035056;28;20650;-81
2024/02/27 02:50:11;;;;;;;4.00;3.00;;;7.50;99.90;;;;;;5026634;28;20731;-80
2024/02/27 02:52:39;;;;;;;3.47;2.50;;;7.30;99.90;;;;;;5030160;27;20660;-81
2024/02/27 02:55:09;;;;;;;3.77;3.47;;;7.70;99.90;;;;;;5016393;28;21447;-81
2024/02/27 02:57:38;;;;;;;3.83;2.97;;;7.40;99.90;;;;;;5018098;28;20631;-81
2024/02/27 03:00:08;;;;;;;3.60;3.30;;;7.70;99.90;;;;;;5021046;28;20629;-81
2024/02/27 03:02:35;;;;;;;5.07;4.57;;;7.70;99.90;;;;;;5007171;28;20624;-82
2024/02/27 03:05:03;;;;;;;5.10;3.60;;;7.70;99.90;;;;;;5036867;28;21062;-81
2024/02/27 03:07:31;;;;;;;4.97;4.17;;;7.70;99.90;;;;;;5030712;28;21201;-81
2024/02/27 03:09:58;;;;;;;4.43;4.03;;;7.70;99.90;;;;;;5026654;27;21184;-81
2024/02/27 03:12:29;;;;;;;4.90;3.90;;;7.60;99.90;;;;;;5009616;28;20656;-81
2024/02/27 03:14:56;;;;;;;5.27;4.37;;;7.60;99.90;;;;;;5027577;28;20632;-81
2024/02/27 03:17:26;;;;;;;4.63;3.80;;;7.60;99.90;;;;;;5023098;28;20623;-81
2024/02/27 03:19:53;;;;;;;5.47;4.97;;;7.80;99.90;;;;;;5033914;28;20674;-81
2024/02/27 03:22:21;;;;;;;4.80;4.30;;;7.50;99.90;;;;;;5024773;28;20627;-82
2024/02/27 03:24:48;;;;;;;5.70;5.00;;;7.50;99.90;;;;;;5037501;28;20630;-81
2024/02/27 03:27:15;;;;;;;6.10;4.63;;;7.40;99.90;;;;;;5025187;28;20840;-81
2024/02/27 03:29:43;;;;;;;5.63;5.10;;;7.50;99.90;;;;;;5030841;28;20715;-80
2024/02/27 03:32:10;;;;;;;5.10;4.60;;;7.40;99.90;;;;;;5032491;28;20756;-80
2024/02/27 03:34:37;;;;;;;9.03;5.23;;;7.40;99.90;;;;;;5018000;28;20647;-81
2024/02/27 03:37:04;;;;;;;6.93;5.43;;;7.40;99.90;;;;;;5023805;27;20612;-81
2024/02/27 03:39:32;;;;;;;8.30;5.23;;;7.50;99.90;;;;;;5060836;27;20636;-82
2024/02/27 03:41:59;;;;;;;6.80;5.60;;;7.40;99.90;;;;;;5022601;28;20623;-81
2024/02/27 03:44:26;;;;;;;6.50;5.00;;;7.40;99.90;;;;;;5097149;27;20619;-81
2024/02/27 03:46:55;;;;;;;7.40;6.13;;;7.40;99.90;;;;;;5025888;28;20632;-82
2024/02/27 03:49:22;;;;;;;5.50;5.00;;;7.30;99.90;;;;;;5015523;28;21014;-81
2024/02/27 03:51:52;;;;;;;8.40;5.60;;;7.30;99.90;;;;;;5013913;28;20627;-81
2024/02/27 03:54:20;;;;;;;7.10;5.90;;;7.30;99.90;;;;;;5025856;28;21280;-82
2024/02/27 03:56:47;;;;;;;7.03;5.83;;;7.30;99.90;;;;;;5016820;28;20621;-82
2024/02/27 03:59:15;;;;;;;7.37;5.27;;;7.20;99.90;;;;;;5020098;28;21230;-81
2024/02/27 04:01:43;;;;;;;6.70;5.70;;;7.10;99.60;;;;;;5035267;28;20731;-81
2024/02/27 04:04:11;;;;;;;8.70;6.80;;;7.10;99.60;;;;;;5035356;28;21214;-81
2024/02/27 04:06:38;;;;;;;7.77;6.63;;;7.70;99.90;;;;;;5011115;28;21030;-82
2024/02/27 04:09:05;;;;;;;6.47;5.87;;;;;;;;;;5030056;28;20616;-81
2024/02/27 04:11:32;;;;;;;9.47;6.40;;;7.30;98.80;;;;;;5028796;27;21336;-82
2024/02/27 04:14:00;;;;;;;8.37;6.30;;;7.30;99.50;;;;;;5027360;28;21174;-81
2024/02/27 04:16:27;;;;;;;6.77;5.10;;;7.30;99.20;;;;;;5025084;28;20709;-81
2024/02/27 04:18:54;;;;;;;8.70;6.67;;;7.20;99.10;;;;;;5011815;28;20631;-81
2024/02/27 04:21:22;;;;;;;8.43;6.30;;;7.30;99.30;;;;;;5034336;28;21175;-81
2024/02/27 04:23:49;;;;;;;8.73;6.10;;;7.30;99.20;;;;;;5049859;27;20639;-82
2024/02/27 04:26:16;;;;;;;7.17;5.70;;;7.20;98.50;;;;;;5063949;27;20633;-81
2024/02/27 04:28:43;;;;;;;8.60;6.10;;;7.20;98.70;;;;;;5078012;27;20627;-81
2024/02/27 04:31:10;;;;;;;9.43;6.77;;;7.10;98.40;;;;;;5034190;27;20917;-81
2024/02/27 04:33:36;;;;;;;6.20;5.53;;;7.20;98.40;;;;;;5028036;28;20655;-82
2024/02/27 04:36:03;;;;;;;6.43;5.80;;;7.20;98.10;;;;;;5010639;28;20994;-81
2024/02/27 04:38:32;;;;;;;9.70;7.10;;;7.30;98.20;;;;;;5022035;28;20707;-82
2024/02/27 04:40:58;;;;;;;10.03;7.30;;;7.00;99.90;;;;;;5026515;28;20654;-81
2024/02/27 04:43:25;;;;;;;7.83;6.40;;;7.10;97.70;;;;;;5021414;28;20626;-82
2024/02/27 04:45:52;;;;;;;8.30;5.37;;;7.10;97.90;;;;;;5027646;28;20650;-82
2024/02/27 04:48:19;;;;;;;7.17;6.00;;;7.30;99.90;;;;;;5022967;28;21020;-82
2024/02/27 04:50:45;;;;;;;8.13;6.30;;;7.00;98.00;;;;;;5029970;28;20626;-81
2024/02/27 04:53:12;;;;;;;10.23;6.70;;;7.20;97.90;;;;;;5039026;28;20785;-81
2024/02/27 04:55:40;;;;;;;11.50;7.43;;;7.30;98.10;;;;;;5018762;28;20618;-82
2024/02/27 04:58:07;;;;;;;12.30;8.30;;;7.10;97.80;;;;;;5013894;28;20722;-82
2024/02/27 05:00:34;;;;;;;9.50;7.30;;;7.10;97.80;;;;;;5028039;28;20652;-81
2024/02/27 05:03:01;;;;;;;8.70;7.10;;;7.10;97.80;;;;;;5011399;28;20720;-81
2024/02/27 05:05:28;;;;;;;10.60;7.60;;;7.10;97.70;;;;;;5061448;27;20888;-81
2024/02/27 05:07:55;;;;;;;7.82;6.57;;;7.10;97.90;;;;;;5040787;27;20991;-81
2024/02/27 05:10:22;;;;;;;11.43;8.23;;;7.30;97.60;;;;;;5039156;28;20202;-81
2024/02/27 05:12:50;;;;;;;11.83;8.03;;;7.30;97.50;;;;;;5045852;28;20757;-81
2024/02/27 05:15:16;;;;;;;10.60;8.10;;;7.20;97.60;;;;;;5027900;28;21179;-81
2024/02/27 05:17:43;;;;;;;10.97;7.53;;;7.20;97.70;;;;;;5026878;28;20623;-81
2024/02/27 05:20:11;;;;;;;10.13;7.00;;;7.10;97.80;;;;;;5028781;28;20702;-81
2024/02/27 05:22:38;;;;;;;8.20;6.50;;;7.10;98.00;;;;;;5033509;28;20622;-81
2024/02/27 05:25:06;;;;;;;9.87;7.20;;;7.00;98.00;;;;;;5035050;28;20977;-82
2024/02/27 05:27:34;;;;;;;9.20;6.60;;;7.00;98.20;;;;;;5023253;28;20619;-81
2024/02/27 05:30:04;;;;;;;7.33;6.67;;;7.10;98.40;;;;;;5033402;28;20619;-81
2024/02/27 05:32:31;;;;;;;9.07;7.00;;;6.90;98.50;;;;;;5015248;28;20664;-81
2024/02/27 05:34:57;;;;;;;9.80;6.70;;;6.80;99.90;;;;;;5040011;28;21171;-82
2024/02/27 05:37:24;;;;;;;8.10;7.00;;;6.90;99.90;;;;;;5027033;28;20280;-82
2024/02/27 05:39:51;;;;;;;9.10;6.50;;;7.40;98.90;;;;;;5034364;28;20204;-82
2024/02/27 05:42:17;;;;;;;12.52;8.18;;;6.90;98.40;;;;;;5024524;28;21162;-82
2024/02/27 05:44:44;;;;;;;11.17;8.13;;;7.20;99.90;;;;;;5027459;28;20636;-81
2024/02/27 05:47:12;;;;;;;8.98;8.00;;;6.90;98.60;;;;;;5020385;28;20611;-81
2024/02/27 05:49:39;;;;;;;9.13;7.10;;;6.90;98.70;;;;;;5021963;28;20668;-82
2024/02/27 05:52:06;;;;;;;10.70;7.72;;;6.80;98.80;;;;;;5033643;28;20626;-81
2024/02/27 05:54:33;;;;;;;10.15;7.25;;;6.70;99.00;;;;;;5031404;28;20261;-81
2024/02/27 05:57:00;;;;;;;11.15;7.85;;;6.80;99.10;;;;;;5032607;28;20208;-77
2024/02/27 05:59:27;;;;;;;25.17;13.52;;;6.80;99.00;;;;;;5046193;27;20244;-75
2024/02/27 06:01:54;;;;;;;14.13;9.70;;;6.80;99.90;;;;;;5056202;27;20201;-75
2024/02/27 06:04:22;;;;;;;11.73;8.45;;;6.80;99.00;;;;;;5086391;27;20193;-75
2024/02/27 06:06:49;;;;;;;12.48;7.13;;;6.90;99.00;;;;;;5079426;27;20279;-78
2024/02/27 06:09:15;;;;;;;11.95;8.60;;;7.00;99.10;;;;;;5035297;27;20223;-78
2024/02/27 06:11:42;;;;;;;13.07;8.63;;;6.90;99.00;;;;;;5025516;28;20196;-78
2024/02/27 06:14:09;;;;;;;14.48;9.00;;;7.00;98.80;;;;;;5030384;28;20663;-78
2024/02/27 06:16:36;;;;;;;21.13;10.63;;;6.90;98.70;;;;;;5036312;27;20292;-77
2024/02/27 06:19:03;;;;;;;14.75;9.57;;;6.90;98.50;;;;;;5028414;28;20637;-79
2024/02/27 06:24:15;;;;;;;13.65;9.38;;;6.50;99.90;;;;;;5041868;28;20626;-79
2024/02/27 06:26:42;;;;;;;12.40;8.95;;;6.90;98.70;;;;;;5026270;28;20215;-78
2024/02/27 06:29:09;;;;;;;11.40;9.10;;;6.80;98.70;;;;;;5029544;28;20199;-80
2024/02/27 06:31:35;;;;;;;13.63;9.80;;;6.70;98.60;;;;;;5028336;28;20215;-79
2024/02/27 06:34:03;;;;;;;13.95;9.80;;;6.60;98.80;;;;;;5014138;28;20296;-79
2024/02/27 06:36:32;;;;;;;13.27;9.25;;;6.60;98.90;;;;;;5019803;27;20201;-79
2024/02/27 06:39:00;;;;;;;11.90;9.18;;;6.80;99.90;;;;;;5073522;27;20201;-81
2024/02/27 06:41:27;;;;;;;11.98;9.25;;;6.70;99.10;;;;;;5055487;27;20197;-81
2024/02/27 06:43:54;;;;;;;12.45;9.25;;;6.70;98.90;;;;;;5029826;27;20207;-81
2024/02/27 06:46:20;;;;;;;13.43;10.15;;;6.80;98.80;;;;;;5025140;27;20209;-81
2024/02/27 06:48:48;;;;;;;13.75;9.93;;;6.70;98.80;;;;;;5044787;27;20280;-85
2024/02/27 06:51:15;;;;;;;15.98;10.20;;;6.70;98.90;;;;;;5027531;27;20203;-79
2024/02/27 06:53:43;;;;;;;14.45;10.10;;;6.80;98.90;;;;;;5029926;28;20209;-81
2024/02/27 06:56:09;;;;;;;15.77;12.95;;;6.80;98.80;;;;;;5040392;28;20224;-81
2024/02/27 06:58:36;;;;;;;13.23;9.95;;;6.70;98.90;;;;;;5088557;27;20697;-81
2024/02/27 07:01:03;;;;;;;16.73;9.77;;;6.70;99.10;;;;;;5106878;27;20231;-84
2024/02/27 07:03:30;;;;;;;15.77;11.57;;;6.70;99.10;;;;;;5049507;27;20207;-84
2024/02/27 07:05:59;;;;;;;15.50;10.70;;;6.90;99.00;;;;;;5024777;28;20208;-84
2024/02/27 07:08:26;;;;;;;14.95;11.88;;;6.90;98.80;;;;;;5042150;28;20262;-83
2024/02/27 07:10:54;;;;;;;16.50;12.50;;;6.70;99.90;;;;;;5094902;27;20197;-83
2024/02/27 07:13:21;;;;;;;15.25;11.43;;;6.90;98.50;;;;;;5098375;27;20226;-83
2024/02/27 07:15:48;;;;;;;14.10;11.03;;;6.90;98.70;;;;;;5034761;28;20725;-83
2024/02/27 07:18:15;;;;;;;16.77;12.87;;;7.10;98.60;;;;;;5046179;28;21201;-83
2024/02/27 07:20:42;;;;;;;17.38;12.60;;;6.90;98.60;;;;;;5091478;27;20655;-83
2024/02/27 07:23:09;;;;;;;14.88;9.95;;;6.90;98.20;;;;;;5029114;28;20209;-83
2024/02/27 07:25:36;;;;;;;17.02;11.93;;;7.00;98.40;;;;;;5026444;28;20196;-83
2024/02/27 07:28:04;;;;;;;18.02;10.77;;;7.00;98.40;;;;;;5063306;27;20193;-84
2024/02/27 07:30:31;;;;;;;20.23;12.05;;;6.90;98.40;;;;;;5130201;27;20280;-84
2024/02/27 07:32:58;;;;;;;17.98;12.27;;;7.00;98.20;;;;;;5046772;27;20288;-83
2024/02/27 07:35:25;;;;;;;14.18;10.90;;;7.00;98.10;;;;;;5109426;27;20280;-84
2024/02/27 07:37:52;;;;;;;17.73;11.57;;;7.00;98.00;;;;;;5075977;27;20264;-83
2024/02/27 07:40:19;;;;;;;20.47;10.97;;;7.00;98.40;;;;;;5025445;28;20231;-84
2024/02/27 07:42:46;;;;;;;22.00;12.50;;;7.00;98.50;;;;;;5024370;28;20722;-83
2024/02/27 07:45:15;;;;;;;16.13;12.43;;;7.10;98.40;;;;;;5025926;28;20201;-83
2024/02/27 07:47:42;;;;;;;17.35;12.13;;;7.10;98.50;;;;;;5042639;28;20627;-84
2024/02/27 07:50:10;;;;;;;17.60;12.13;;;7.20;98.10;;;;;;5053157;28;20193;-83
2024/02/27 07:52:36;;;;;;;19.00;12.40;;;7.30;99.90;;;;;;5028073;28;20232;-83
2024/02/27 07:55:04;;;;;;;16.38;13.13;;;7.00;97.90;;;;;;5028126;28;20766;-84
2024/02/27 07:57:30;;;;;;;16.95;11.65;;;7.20;97.90;;;;;;5045079;28;20287;-84
2024/02/27 07:59:57;;;;;;;17.40;11.80;;;7.30;98.10;;;;;;5123671;27;20201;-83
2024/02/27 08:02:25;;;;;;;16.93;12.67;;;7.00;99.90;;;;;;5084121;28;20627;-84
2024/02/27 08:04:52;;;;;;;19.60;12.80;;;7.30;98.10;;;;;;5050726;28;20674;-79
2024/02/27 08:07:19;;;;;;;16.17;11.50;;;7.30;97.80;;;;;;5025603;28;21054;-79
2024/02/27 08:09:46;;;;;;;15.70;12.20;;;7.40;97.70;;;;;;5039486;28;20616;-84
2024/02/27 08:12:13;;;;;;;25.37;14.63;;;7.10;99.90;;;;;;5026488;28;20874;-81
2024/02/27 08:14:39;;;;;;;14.43;11.70;;;7.50;97.50;;;;;;5027841;28;20677;-79
2024/02/27 08:17:06;;;;;;;18.10;12.67;;;;;;;;;;5022684;28;20623;-85
2024/02/27 08:19:35;;;;;;;16.67;12.93;;;7.60;96.80;;;;;;5022435;28;20630;-80
2024/02/27 08:22:04;;;;;;;18.10;12.50;;;7.80;96.90;;;;;;5023183;28;21060;-77
2024/02/27 08:24:31;;;;;;;20.00;11.90;;;7.80;96.50;;;;;;5053149;28;21163;-84
2024/02/27 08:26:58;;;;;;;20.00;12.50;;;7.80;97.00;;;;;;5039958;28;21215;-84
2024/02/27 08:29:25;;;;;;;19.77;12.10;;;7.80;96.90;;;;;;5025396;28;20654;-78
2024/02/27 08:31:52;;;;;;;17.40;12.63;;;7.70;97.10;;;;;;5027015;28;21178;-78
2024/02/27 08:34:19;;;;;;;17.57;12.30;;;7.70;97.30;;;;;;5024844;28;20673;-78
2024/02/27 08:36:47;;;;;;;13.40;10.80;;;7.70;97.30;;;;;;5023902;28;20627;-78
2024/02/27 08:39:14;;;;;;;19.10;13.40;;;7.60;97.30;;;;;;5025254;28;20616;-77
2024/02/27 08:41:41;;;;;;;17.03;12.67;;;7.80;97.40;;;;;;5039550;28;20629;-78
2024/02/27 08:44:08;;;;;;;17.60;13.90;;;7.80;99.90;;;;;;5067322;28;20638;-77
2024/02/27 08:46:35;;;;;;;17.03;12.60;;;8.20;99.90;;;;;;5029053;28;20631;-77
2024/02/27 08:49:02;;;;;;;16.60;13.00;;;8.70;99.90;;;;;;5045306;28;20622;-78
2024/02/27 08:51:31;;;;;;;17.00;12.10;;;8.10;96.90;;;;;;5026780;28;20663;-78
2024/02/27 08:53:59;;;;;;;16.50;12.80;;;8.20;96.50;;;;;;5041107;28;20665;-78
2024/02/27 08:56:26;;;;;;;17.60;13.10;;;8.20;96.60;;;;;;5092729;28;20708;-77
2024/02/27 08:58:52;;;;;;;17.40;13.10;;;8.30;99.90;;;;;;5099878;28;20623;-77
2024/02/27 09:01:19;;;;;;;14.47;11.93;;;8.10;99.90;;;;;;5041877;28;20612;-77
2024/02/27 09:03:48;;;;;;;18.00;13.07;;;8.10;96.90;;;;;;5038757;28;20631;-77
2024/02/27 09:06:15;;;;;;;20.57;14.00;;;8.20;96.70;;;;;;5042583;28;20623;-77
2024/02/27 09:08:42;;;;;;;17.10;11.90;;;8.30;96.70;;;;;;5100349;28;20611;-77
2024/02/27 09:11:10;;;;;;;17.40;12.70;;;8.30;96.50;;;;;;5094569;27;21154;-77
2024/02/27 09:13:36;;;;;;;18.30;13.37;;;8.40;96.60;;;;;;5065012;27;20680;-78
2024/02/27 09:16:03;;;;;;;16.20;12.87;;;8.30;99.90;;;;;;5052160;27;20657;-78
2024/02/27 09:18:30;;;;;;;17.53;12.77;;;8.00;99.90;;;;;;5040760;28;21255;-78
2024/02/27 09:20:57;;;;;;;17.70;13.20;;;8.20;99.90;;;;;;5042877;28;21189;-78
2024/02/27 09:23:24;;;;;;;20.00;13.27;;;7.80;99.90;;;;;;5090454;27;20659;-78
2024/02/27 09:25:51;;;;;;;18.70;13.60;;;8.20;97.40;;;;;;5038243;27;21166;-78
2024/02/27 09:28:19;;;;;;;19.90;12.93;;;8.10;97.50;;;;;;5050639;27;20679;-78
2024/02/27 09:30:46;;;;;;;17.73;13.10;;;8.00;98.20;;;;;;5132625;27;20621;-78
2024/02/27 09:33:13;;;;;;;17.87;13.30;;;7.90;98.20;;;;;;5062919;27;20666;-78
2024/02/27 09:35:41;;;;;;;18.80;13.53;;;7.90;98.50;;;;;;5055241;27;20667;-77
2024/02/27 09:38:08;;;;;;;24.40;13.60;;;7.80;98.20;;;;;;5034812;28;20659;-78
2024/02/27 09:40:35;;;;;;;23.57;13.73;;;8.00;98.80;;;;;;5034139;28;20623;-78
2024/02/27 09:43:03;;;;;;;16.43;13.47;;;7.80;99.10;;;;;;5031536;28;20631;-78
2024/02/27 09:45:32;;;;;;;16.10;12.63;;;8.00;98.70;;;;;;5045476;28;20614;-78
2024/02/27 09:48:01;;;;;;;16.83;13.30;;;8.20;98.70;;;;;;5105219;27;20627;-78
2024/02/27 09:50:31;;;;;;;16.33;12.20;;;8.00;98.20;;;;;;5079170;27;20734;-78
2024/02/27 09:53:00;;;;;;;17.37;12.93;;;7.90;98.50;;;;;;5027361;28;20721;-78
2024/02/27 09:55:28;;;;;;;23.93;15.43;;;8.00;98.70;;;;;;5049939;27;20681;-78
2024/02/27 09:57:55;;;;;;;18.43;13.83;;;8.10;98.30;;;;;;5027365;28;20714;-78
2024/02/27 10:00:22;;;;;;;18.30;13.67;;;8.00;98.80;;;;;;5043767;28;20678;-78
2024/02/27 10:02:50;;;;;;;18.07;12.77;;;7.90;99.90;;;;;;5096238;27;20719;-77
2024/02/27 10:05:19;;;;;;;16.67;11.90;;;7.90;99.90;;;;;;5101322;27;20721;-77
2024/02/27 10:07:48;;;;;;;20.57;13.83;;;7.90;98.40;;;;;;5057806;27;20715;-78
2024/02/27 10:10:15;;;;;;;17.30;12.50;;;7.90;98.90;;;;;;5132002;27;20607;-78
2024/02/27 10:12:42;;;;;;;16.03;13.83;;;8.10;98.90;;;;;;5046206;28;20628;-78
2024/02/27 10:15:10;;;;;;;35.43;13.83;;;8.10;98.50;;;;;;5033393;28;20671;-78
2024/02/27 10:17:38;;;;;;;19.07;12.97;;;8.20;98.50;;;;;;5035879;28;20613;-78
2024/02/27 10:20:10;;;;;;;17.80;13.17;;;8.40;98.50;;;;;;5067358;27;21063;-78
2024/02/27 10:22:38;;;;;;;17.80;13.50;;;8.40;98.60;;;;;;5127333;27;20674;-78
2024/02/27 10:25:06;;;;;;;15.27;13.63;;;8.30;98.20;;;;;;5034472;28;21206;-78
2024/02/27 10:27:35;;;;;;;15.17;11.73;;;8.20;98.30;;;;;;5042776;28;20962;-78
2024/02/27 10:30:03;;;;;;;20.53;12.70;;;8.20;98.30;;;;;;5033308;28;20620;-77
2024/02/27 10:32:32;;;;;;;24.43;13.43;;;8.30;98.30;;;;;;5034393;28;20665;-78
2024/02/27 10:35:02;;;;;;;18.17;13.60;;;7.90;98.00;;;;;;5060436;27;20662;-77
2024/02/27 10:37:32;;;;;;;16.83;13.97;;;7.80;98.40;;;;;;5130579;27;20714;-78
2024/02/27 10:39:59;;;;;;;22.70;14.10;;;7.80;98.70;;;;;;5029730;27;20657;-78
2024/02/27 10:42:27;;;;;;;19.30;13.10;;;7.80;98.80;;;;;;5028828;28;20624;-78
2024/02/27 10:44:55;;;;;;;18.00;13.47;;;7.80;98.80;;;;;;5037330;28;20623;-78
2024/02/27 10:47:22;;;;;;;17.30;13.30;;;7.90;98.80;;;;;;5031352;28;20667;-78
2024/02/27 10:49:49;;;;;;;21.43;14.40;;;8.10;98.60;;;;;;5042137;28;20620;-78
2024/02/27 10:52:17;;;;;;;15.00;12.03;;;8.10;98.70;;;;;;5042533;28;21066;-78
2024/02/27 10:54:46;;;;;;;17.47;13.30;;;8.30;98.60;;;;;;5043333;28;20650;-78
2024/02/27 10:57:14;;;;;;;21.57;13.87;;;8.20;98.10;;;;;;5098726;27;20721;-78
2024/02/27 10:59:42;;;;;;;17.23;13.73;;;8.10;98.20;;;;;;5097323;27;20959;-78
2024/02/27 11:02:16;;;;;;;23.23;15.20;;;8.20;98.80;;;;;;5044289;28;20674;-78
2024/02/27 11:04:45;;;;;;;22.57;13.80;;;8.50;98.20;;;;;;5046466;28;20624;-78
2024/02/27 11:07:14;;;;;;;20.20;13.40;;;8.60;98.10;;;;;;5006034;28;20657;-78
2024/02/27 11:09:43;;;;;;;21.87;14.83;;;8.70;98.00;;;;;;5037913;28;20622;-78
2024/02/27 11:12:15;;;;;;;17.00;13.50;;;8.80;97.80;;;;;;5094508;27;21042;-78
2024/02/27 11:14:45;;;;;;;16.40;14.40;;;8.80;97.80;;;;;;5094818;27;20663;-78
2024/02/27 11:17:17;;;;;;;20.60;14.73;;;8.90;97.80;;;;;;5028816;28;20631;-78
2024/02/27 11:19:49;;;;;;;20.33;14.13;;;8.90;97.20;;;;;;5034671;28;21070;-78
2024/02/27 11:22:17;;;;;;;20.93;14.57;;;9.00;97.60;;;;;;5046179;28;21175;-78
2024/02/27 11:24:45;;;;;;;21.90;15.43;;;9.20;97.20;;;;;;5061840;27;21191;-78
2024/02/27 11:27:16;;;;;;;20.93;15.37;;;9.20;97.10;;;;;;5036150;28;20620;-78
2024/02/27 11:29:43;;;;;;;17.93;14.20;;;9.30;97.10;;;;;;5074550;27;20650;-78
2024/02/27 11:32:12;;;;;;;20.57;15.40;;;9.40;97.30;;;;;;5121070;27;21188;-78
2024/02/27 11:34:39;;;;;;;21.47;15.23;;;9.70;96.80;;;;;;5045127;28;20718;-78
2024/02/27 11:37:10;;;;;;;19.20;13.83;;;9.70;96.90;;;;;;5036452;27;20635;-78
2024/02/27 11:39:37;;;;;;;21.00;15.80;;;9.80;96.50;;;;;;5031388;28;20723;-78
2024/02/27 11:42:05;;;;;;;18.53;15.20;;;9.90;96.40;;;;;;5034839;28;20697;-78
2024/02/27 11:44:33;;;;;;;24.10;15.50;;;9.80;96.30;;;;;;5042647;28;21552;-78
2024/02/27 11:47:00;;;;;;;21.43;15.10;;;9.90;96.10;;;;;;5045439;28;20621;-78
2024/02/27 11:49:40;;;;;;;17.33;13.33;;;9.90;96.40;;;;;;5009053;28;20733;-78
2024/02/27 11:52:07;;;;;;;17.03;13.73;;;10.10;99.40;;;;;;5036291;28;20619;-78
2024/02/27 11:54:35;;;;;;;20.13;13.83;;;10.10;95.40;;;;;;5037958;28;21197;-78
2024/02/27 11:57:04;;;;;;;20.57;14.60;;;10.20;95.50;;;;;;5078204;28;20662;-78
2024/02/27 11:59:32;;;;;;;21.57;14.93;;;9.90;95.50;;;;;;5114917;27;20965;-78
2024/02/27 12:02:01;;;;;;;19.33;15.10;;;9.90;95.70;;;;;;5046394;28;20627;-78
2024/02/27 12:04:28;;;;;;;24.40;15.03;;;10.10;94.90;;;;;;5091429;28;20776;-78
2024/02/27 12:06:55;;;;;;;20.70;14.03;;;9.80;95.50;;;;;;5039907;28;20632;-78
2024/02/27 12:09:26;;;;;;;20.70;14.43;;;9.90;95.90;;;;;;5088250;28;20725;-78
2024/02/27 12:11:53;;;;;;;21.53;16.37;;;9.80;96.10;;;;;;5104703;28;20619;-78
2024/02/27 12:14:21;;;;;;;18.70;15.30;;;9.90;96.00;;;;;;5045103;28;20629;-78
2024/02/27 12:16:49;;;;;;;26.77;15.37;;;9.90;96.10;;;;;;5025512;28;20637;-78
2024/02/27 12:19:16;;;;;;;21.90;14.83;;;9.80;96.10;;;;;;5030649;28;20978;-78
2024/02/27 12:21:43;;;;;;;19.73;15.30;;;9.70;96.00;;;;;;5037510;28;20733;-78
2024/02/27 12:24:11;;;;;;;22.80;17.03;;;9.40;96.50;;;;;;5028858;28;20636;-78
2024/02/27 12:26:38;;;;;;;24.67;16.97;;;9.30;96.90;;;;;;5028246;28;20721;-78
2024/02/27 12:29:05;;;;;;;21.27;15.90;;;9.40;96.90;;;;;;5045541;28;20988;-78
2024/02/27 12:31:32;;;;;;;20.10;15.57;;;9.30;96.70;;;;;;5124001;28;20973;-78
2024/02/27 12:34:01;;;;;;;25.53;16.60;;;9.20;97.20;;;;;;5063032;28;20700;-78
2024/02/27 12:36:28;;;;;;;19.53;15.70;;;9.30;97.20;;;;;;5085638;28;20665;-78
2024/02/27 12:38:55;;;;;;;23.30;17.47;;;9.20;99.90;;;;;;5106437;28;20635;-78
2024/02/27 12:41:23;;;;;;;20.50;14.97;;;9.20;97.40;;;;;;5026133;28;20635;-78
2024/02/27 12:43:50;;;;;;;20.37;15.83;;;9.00;97.40;;;;;;5044945;28;20633;-78
2024/02/27 12:46:19;;;;;;;24.30;16.53;;;8.90;97.70;;;;;;5114420;27;21031;-78
2024/02/27 12:48:47;;;;;;;22.60;16.13;;;8.80;97.60;;;;;;5040926;27;20701;-78
2024/02/27 12:51:16;;;;;;;22.53;16.53;;;8.80;98.00;;;;;;5037871;28;20617;-78